Local Weather Ingen bokad jour idag Monday 4th of March
Flygplats METAR TAF
Airport METAR TAF
ESSL - Linköping041550Z 05009KT CAVOK 04/01 Q1023=041430Z 0415/0419 06010KT 9999 FEW015=
ESCF - Malmen041550Z AUTO 04008KT 9999 FEW023/// 04/01 Q1023=CNL 041515Z 0412/0416 CNL=
ESSP - Norrköping041550Z AUTO 04006KT 9999 NCD 04/01 Q1024=041130Z 0412/0416 07008KT 9999 OVC006 BECMG 0412/0414 BKN015 PROB40 0414/0416 BKN013=
ESGJ - Jönköping041550Z 09009KT 9999 FEW036 05/M00 Q1020=041430Z 0415/0424 09010KT CAVOK PROB40 0421/0424 BKN012=
ESKN - Skavsta041550Z 01008KT 9999 FEW028 03/01 Q1024=041430Z 0415/0515 04007KT 9999 SCT013 PROB40 0415/0419 BKN008 PROB40 0419/0506 2000 BR BKN006 PROB40 0506/0515 BKN010=
ESSV - Visby041550Z 05009KT CAVOK 04/M00 Q1022=041430Z 0415/0421 08011KT CAVOK=
ESGG - Göteborg041550Z 08011KT CAVOK 06/M03 Q1019=041430Z 0415/0515 08011KT CAVOK PROB40 0424/0510 BKN014=
FLEET STATUS
Flygplan Tid till service Tid till flygstopp Flygtid Landningar
Aircraft To service To stop Total time Landings
SE-IUD15.0 h25.0 h12 985.0 h26 649 st.
(1) Fågelkollision, vänster vinge
SE-KIT5.5 h15.5 h13 294.5 h26 624 st.
SE-KMH14.1 h24.1 h17 285.9 h63 927 st.
SE-LRL14.9 h19.9 h2 035.1 h4 119 st.
SE-MEKN/AN/A4 069.9 h4 541 st.
SE-MMZ40.5 h50.5 h1 359.5 h2 336 st.
PPR
Ankomst Avgång Flygplan Namn Bränsle
Arrival Departure Aircraft Name Fuel
NOTAM
>>> ESSL/LINKOPING/SAAB <<<
+ AERODROME CONTROL TOWER (TWR) HOURS OF SERVICE ARE NOW MON-TUE 0445-1725 2110-2210, WED 0445-1725, THU 0600-1725 2110-2210, FRI 0445-1725 2110-2210, SAT 0445-0535 0955-1125 1640-1740, SUN 0445-0535 0955-1125 1600-1735 2110-2210. FROM: 04 MAR 2024 00:00 TO: 10 MAR 2024 23:59
>>> ESSP/NORRKOPING/KUNGSANGEN <<<
+ OCA/OCH CHANGED FOR RNP LPV APCH RWY 09: CAT A: OCA 412 FT OCH 399 FT CAT B: OCA 425 FT OCH 412 FT SCHEDULE: MON-FRI 0500-1700 FROM: 04 MAR 2024 05:00 TO: 15 MAR 2024 17:00
+ OCA/OCH CHANGED FOR CIRCLING SOUTH OF RWY 09/27 CAT A: OCA(OCH) 580FT(550FT) SCHEDULE: MON-FRI 0500-1700 FROM: 04 MAR 2024 05:00 TO: 15 MAR 2024 17:00
+ OCA/OCH CHANGED FOR ILS APCH RWY 09: CAT A: OCA 364FT OCH 350FT CAT B: OCA 370FT OCH 356FT CAT C: OCA 378FT OCH 364FT CAT D: OCA 386FT OCH 372FT SCHEDULE: MON-FRI 0500-1700 FROM: 04 MAR 2024 05:00 TO: 15 MAR 2024 17:00
+ CRANE ERECTED IN APCH RWY09 PSN 583510N 0161123E HGT 230FT AGL ELEV 283FT AMSL. LGTD F R SCHEDULE: MON-FRI 0500-1700 FROM: 04 MAR 2024 05:00 TO: 15 MAR 2024 17:00
+ AERODROME CONTROL TOWER (TWR) HOURS OF SERVICE ARE NOW MON-TUE 0630-1530, WED 0630-2030, THU 0630-1530, FRI 0630-1430, SAT 1100-1415, SUN 0130-0300 1400-2000 FROM: 04 MAR 2024 00:00 TO: 10 MAR 2024 23:59
+ FUEL AVAILABILITY HOURS OF SERVICE ARE NOW THE SAME AS ATS. REF AIP AD 2 ESSP 1-1, ITEM 2.3. FROM: 19 FEB 2024 00:00 TO: PERM
+ OCA/OCH CHANGED FOR RNP LPV APCH RWY 09: CAT C: OCA 469FT OCH 456FT CAT D: OCA 479FT OCH 466FT FROM: 22 JAN 2024 14:08 TO: 01 APR 2024 23:59
+ OCA/OCH CHANGED FOR LOC APCH RWY 09: OCA 570FT OCH 560FT FROM: 22 JAN 2024 14:04 TO: 01 APR 2024 23:59
+ A WEATHER PROTECTION ERECTED AROUND WATERTOWER OBST IN APCH RWY09 PSN 583504.0N 161010E.0E HGT 138FT AGL ELEV 276FT AMSL. OBST LGT U/S. FROM: 22 JAN 2024 14:02 TO: 01 APR 2024 23:59
+ FUEL 100LL COMPLETELY WITHDRAWN. FROM: 01 JAN 2024 00:00 TO: PERM
>>> ESCF/LINKOPING/MALMEN <<<
+ CIV PAPI RWY 01 U/S FROM: 01 MAR 2024 10:33 TO: 08 MAR 2024 11:00 EST
+ SECONDARY POWER SUPPLY SWITCH OVER TIME, AVAILABLE WITH 15 SECONDS INTERRUPTION. FROM: 05 MAR 2024 06:30 TO: 06 MAY 2024 15:00
+ PRECISION APPROACH RADAR (PAR) U/S FROM: 04 MAR 2024 07:00 TO: 06 MAR 2024 15:00